Time;durP1;ratioP1;P1;durP2;ratioP2;P2;SDS_P1;SDS_P2;PMS_P1;PMS_P2;Temp;Humidity;BMP_temperature;BMP_pressure;BME280_temperature;BME280_humidity;BME280_pressure;Samples;Min_cycle;Max_cycle;Signal;HPM_P1;HPM_P2
2024/01/02 00:00:38;;;;;;;;;;;4.70;100.00;;;;;;6204360;23;19958;-69
2024/01/02 00:03:05;;;;;;;;;;;4.60;100.00;;;;;;6203459;23;19939;-69
2024/01/02 00:05:32;;;;;;;;;;;4.60;100.00;;;;;;6205012;23;19930;-69
2024/01/02 00:07:59;;;;;;;;;;;4.60;100.00;;;;;;6205108;23;19926;-69
2024/01/02 00:10:26;;;;;;;;;;;4.60;100.00;;;;;;6203397;23;20061;-69
2024/01/02 00:12:52;;;;;;;;;;;4.50;100.00;;;;;;6177774;23;19927;-69
2024/01/02 00:15:19;;;;;;;;;;;4.50;100.00;;;;;;6205384;23;19931;-69
2024/01/02 00:17:46;;;;;;;;;;;4.50;100.00;;;;;;6178441;23;19927;-69
2024/01/02 00:20:13;;;;;;;;;;;4.40;100.00;;;;;;6204404;23;19925;-69
2024/01/02 00:22:40;;;;;;;;;;;4.40;100.00;;;;;;6178875;23;19998;-69
2024/01/02 00:25:07;;;;;;;;;;;4.40;100.00;;;;;;6206498;23;19997;-69
2024/01/02 00:27:34;;;;;;;;;;;4.40;100.00;;;;;;6207040;23;19920;-69
2024/01/02 00:30:00;;;;;;;;;;;4.40;100.00;;;;;;6180909;23;19939;-70
2024/01/02 00:32:27;;;;;;;;;;;4.50;100.00;;;;;;6207184;23;19920;-70
2024/01/02 00:34:54;;;;;;;;;;;4.50;100.00;;;;;;6206731;23;19926;-70
2024/01/02 00:37:21;;;;;;;;;;;4.50;100.00;;;;;;6207099;23;19920;-70
2024/01/02 00:39:48;;;;;;;;;;;4.50;100.00;;;;;;6207333;23;19943;-70
2024/01/02 00:42:14;;;;;;;;;;;4.50;100.00;;;;;;6207073;23;19926;-70
2024/01/02 00:44:41;;;;;;;;;;;4.50;100.00;;;;;;6179830;23;19924;-70
2024/01/02 00:47:10;;;;;;;;;;;4.50;100.00;;;;;;6206895;23;19943;-69
2024/01/02 00:49:37;;;;;;;;;;;4.50;100.00;;;;;;6180501;23;19992;-69
2024/01/02 00:52:03;;;;;;;;;;;4.50;100.00;;;;;;6179403;23;20507;-70
2024/01/02 00:54:30;;;;;;;;;;;4.40;100.00;;;;;;6179923;23;19920;-70
2024/01/02 00:56:57;;;;;;;;;;;4.40;100.00;;;;;;6206350;23;19920;-69
2024/01/02 00:59:24;;;;;;;;;;;4.40;100.00;;;;;;6206750;23;19926;-69
2024/01/02 01:01:50;;;;;;;;;;;4.40;100.00;;;;;;6206268;23;20001;-69
2024/01/02 01:04:17;;;;;;;;;;;4.40;100.00;;;;;;6207463;23;19919;-69
2024/01/02 01:06:44;;;;;;;;;;;4.50;100.00;;;;;;6179501;23;20338;-69
2024/01/02 01:09:11;;;;;;;;;;;4.50;100.00;;;;;;6179626;23;20195;-69
2024/01/02 01:11:37;;;;;;;;;;;4.50;100.00;;;;;;6206848;23;19974;-69
2024/01/02 01:14:04;;;;;;;;;;;4.40;100.00;;;;;;6206220;23;19993;-69
2024/01/02 01:16:31;;;;;;;;;;;4.40;100.00;;;;;;6206042;23;19962;-69
2024/01/02 01:18:58;;;;;;;;;;;4.40;100.00;;;;;;6206983;23;19919;-69
2024/01/02 01:21:25;;;;;;;;;;;4.30;100.00;;;;;;6180248;23;20290;-69
2024/01/02 01:23:51;;;;;;;;;;;4.20;100.00;;;;;;6205631;23;19938;-69
2024/01/02 01:26:18;;;;;;;;;;;4.10;100.00;;;;;;6179264;23;20330;-69
2024/01/02 01:28:45;;;;;;;;;;;4.10;100.00;;;;;;6206729;23;19926;-69
2024/01/02 01:31:12;;;;;;;;;;;4.00;100.00;;;;;;6179606;23;19927;-69
2024/01/02 01:33:39;;;;;;;;;;;3.90;100.00;;;;;;6206216;23;19996;-69
2024/01/02 01:36:06;;;;;;;;;;;3.80;100.00;;;;;;6179444;23;19970;-68
2024/01/02 01:38:32;;;;;;;;;;;3.70;100.00;;;;;;6179786;23;19942;-68
2024/01/02 01:40:59;;;;;;;;;;;3.70;100.00;;;;;;6206942;23;19926;-68
2024/01/02 01:43:26;;;;;;;;;;;3.60;100.00;;;;;;6207267;23;19930;-68
2024/01/02 01:45:53;;;;;;;;;;;3.60;100.00;;;;;;6206288;23;19920;-68
2024/01/02 01:48:20;;;;;;;;;;;3.60;100.00;;;;;;6179460;23;20006;-68
2024/01/02 01:50:47;;;;;;;;;;;3.60;100.00;;;;;;6179891;23;20001;-69
2024/01/02 01:53:14;;;;;;;;;;;3.60;100.00;;;;;;6179717;23;19951;-69
2024/01/02 01:55:41;;;;;;;;;;;3.70;100.00;;;;;;6205425;23;19927;-69
2024/01/02 01:58:09;;;;;;;;;;;3.70;100.00;;;;;;6179994;23;19919;-69
2024/01/02 02:00:36;;;;;;;;;;;3.80;100.00;;;;;;6205799;23;19954;-69
2024/01/02 02:03:03;;;;;;;;;;;3.90;100.00;;;;;;6205752;23;20392;-69
2024/01/02 02:05:31;;;;;;;;;;;4.00;100.00;;;;;;6203919;23;19930;-69
2024/01/02 02:07:58;;;;;;;;;;;4.00;100.00;;;;;;6179736;23;19927;-69
2024/01/02 02:10:24;;;;;;;;;;;4.10;100.00;;;;;;6206074;23;19920;-69
2024/01/02 02:12:52;;;;;;;;;;;4.10;100.00;;;;;;6205529;23;19942;-69
2024/01/02 02:15:19;;;;;;;;;;;4.10;100.00;;;;;;6206751;23;20280;-69
2024/01/02 02:17:46;;;;;;;;;;;4.20;100.00;;;;;;6205827;23;19924;-69
2024/01/02 02:20:13;;;;;;;;;;;4.20;100.00;;;;;;6205715;23;20019;-69
2024/01/02 02:22:45;;;;;;;;;;;4.20;100.00;;;;;;6205569;23;19919;-69
2024/01/02 02:25:14;;;;;;;;;;;4.20;100.00;;;;;;6206358;23;19924;-69
2024/01/02 02:27:41;;;;;;;;;;;4.20;100.00;;;;;;6203905;23;19986;-69
2024/01/02 02:30:08;;;;;;;;;;;4.20;100.00;;;;;;6180130;23;20296;-70
2024/01/02 02:32:34;;;;;;;;;;;4.10;100.00;;;;;;6206416;23;19919;-69
2024/01/02 02:35:02;;;;;;;;;;;4.10;100.00;;;;;;6205506;23;19924;-69
2024/01/02 02:37:28;;;;;;;;;;;4.00;100.00;;;;;;6205299;23;19926;-69
2024/01/02 02:39:55;;;;;;;;;;;4.00;100.00;;;;;;6205817;23;20348;-69
2024/01/02 02:42:22;;;;;;;;;;;3.90;100.00;;;;;;6206343;23;19919;-69
2024/01/02 02:44:49;;;;;;;;;;;3.80;100.00;;;;;;6178835;23;20615;-69
2024/01/02 02:47:15;;;;;;;;;;;3.80;100.00;;;;;;6178397;23;19928;-71
2024/01/02 02:49:42;;;;;;;;;;;3.70;100.00;;;;;;6205491;23;19926;-69
2024/01/02 02:52:09;;;;;;;;;;;3.60;100.00;;;;;;6178500;23;19923;-69
2024/01/02 02:54:36;;;;;;;;;;;3.60;100.00;;;;;;6179386;23;19973;-69
2024/01/02 02:57:03;;;;;;;;;;;3.50;100.00;;;;;;6179399;23;19923;-69
2024/01/02 02:59:29;;;;;;;;;;;3.50;100.00;;;;;;6205182;23;19966;-69
2024/01/02 03:01:56;;;;;;;;;;;3.40;100.00;;;;;;6205430;23;19970;-69
2024/01/02 03:04:23;;;;;;;;;;;3.40;100.00;;;;;;6204879;23;19920;-69
2024/01/02 03:06:50;;;;;;;;;;;3.30;100.00;;;;;;6205363;23;19970;-69
2024/01/02 03:09:17;;;;;;;;;;;3.30;100.00;;;;;;6205573;23;20302;-69
2024/01/02 03:11:44;;;;;;;;;;;3.30;100.00;;;;;;6205335;23;19924;-69
2024/01/02 03:14:11;;;;;;;;;;;3.30;100.00;;;;;;6205443;23;19977;-69
2024/01/02 03:16:37;;;;;;;;;;;3.30;100.00;;;;;;6178727;23;19919;-69
2024/01/02 03:19:05;;;;;;;;;;;3.30;100.00;;;;;;6178822;23;20321;-69
2024/01/02 03:21:31;;;;;;;;;;;3.40;100.00;;;;;;6179292;23;19924;-69
2024/01/02 03:23:58;;;;;;;;;;;3.40;100.00;;;;;;6204285;23;19966;-69
2024/01/02 03:26:25;;;;;;;;;;;3.40;100.00;;;;;;6177475;23;20431;-69
2024/01/02 03:28:52;;;;;;;;;;;3.40;100.00;;;;;;6204556;23;19920;-69
2024/01/02 03:31:19;;;;;;;;;;;3.40;100.00;;;;;;6205023;23;19926;-68
2024/01/02 03:33:47;;;;;;;;;;;3.30;100.00;;;;;;6205576;23;20561;-69
2024/01/02 03:36:20;;;;;;;;;;;3.30;100.00;;;;;;6205370;23;20344;-69
2024/01/02 03:38:47;;;;;;;;;;;3.30;100.00;;;;;;6203222;23;19950;-69
2024/01/02 03:41:14;;;;;;;;;;;3.30;100.00;;;;;;6204837;23;19920;-69
2024/01/02 03:43:41;;;;;;;;;;;3.20;100.00;;;;;;6205144;23;19984;-69
2024/01/02 03:46:08;;;;;;;;;;;3.20;100.00;;;;;;6205343;23;20329;-69
2024/01/02 03:48:35;;;;;;;;;;;3.20;100.00;;;;;;6205034;23;19974;-69
2024/01/02 03:51:02;;;;;;;;;;;3.20;100.00;;;;;;6178440;23;19998;-69
2024/01/02 03:53:29;;;;;;;;;;;3.20;100.00;;;;;;6205080;23;19924;-69
2024/01/02 03:55:56;;;;;;;;;;;3.10;100.00;;;;;;6204073;23;19920;-69
2024/01/02 03:58:23;;;;;;;;;;;3.10;100.00;;;;;;6205387;23;19990;-69
2024/01/02 04:00:50;;;;;;;;;;;3.10;100.00;;;;;;6207346;23;19924;-69
2024/01/02 04:03:17;;;;;;;;;;;3.10;100.00;;;;;;6207920;23;19995;-69
2024/01/02 04:05:44;;;;;;;;;;;3.00;100.00;;;;;;6207699;23;19927;-69
2024/01/02 04:08:11;;;;;;;;;;;3.00;100.00;;;;;;6181704;23;19950;-69
2024/01/02 04:10:38;;;;;;;;;;;3.00;100.00;;;;;;6180476;23;19994;-69
2024/01/02 04:13:05;;;;;;;;;;;3.00;100.00;;;;;;6178947;23;19951;-69
2024/01/02 04:15:33;;;;;;;;;;;3.00;100.00;;;;;;6206424;23;19978;-69
2024/01/02 04:18:00;;;;;;;;;;;3.10;100.00;;;;;;6207489;23;19927;-69
2024/01/02 04:20:27;;;;;;;;;;;3.00;100.00;;;;;;6207179;23;19950;-69
2024/01/02 04:22:55;;;;;;;;;;;3.10;100.00;;;;;;6208558;23;19919;-69
2024/01/02 04:25:22;;;;;;;;;;;3.00;100.00;;;;;;6208626;23;19951;-69
2024/01/02 04:27:53;;;;;;;;;;;3.00;100.00;;;;;;6207378;23;19916;-69
2024/01/02 04:30:20;;;;;;;;;;;3.10;100.00;;;;;;6208149;23;19920;-69
2024/01/02 04:32:47;;;;;;;;;;;3.10;100.00;;;;;;6207984;23;19954;-69
2024/01/02 04:35:14;;;;;;;;;;;3.20;100.00;;;;;;6206353;23;19926;-69
2024/01/02 04:37:41;;;;;;;;;;;3.10;100.00;;;;;;6206655;23;20588;-69
2024/01/02 04:40:10;;;;;;;;;;;3.10;100.00;;;;;;6207037;23;20480;-69
2024/01/02 04:42:37;;;;;;;;;;;3.10;100.00;;;;;;6207403;23;19926;-69
2024/01/02 04:45:04;;;;;;;;;;;3.10;100.00;;;;;;6206765;23;19920;-69
2024/01/02 04:47:31;;;;;;;;;;;3.10;100.00;;;;;;6207093;23;19927;-69
2024/01/02 04:49:59;;;;;;;;;;;3.10;100.00;;;;;;6206748;23;19919;-69
2024/01/02 04:52:26;;;;;;;;;;;3.10;100.00;;;;;;6206213;23;19993;-69
2024/01/02 04:54:52;;;;;;;;;;;3.10;100.00;;;;;;6206325;23;20400;-69
2024/01/02 04:57:19;;;;;;;;;;;3.10;100.00;;;;;;6181643;23;19966;-69
2024/01/02 04:59:48;;;;;;;;;;;3.10;100.00;;;;;;6207383;23;19966;-69
2024/01/02 05:02:15;;;;;;;;;;;3.10;100.00;;;;;;6207277;23;19978;-69
2024/01/02 05:04:42;;;;;;;;;;;3.10;100.00;;;;;;6207944;23;19927;-69
2024/01/02 05:07:09;;;;;;;;;;;3.10;100.00;;;;;;6179829;23;19919;-69
2024/01/02 05:09:35;;;;;;;;;;;3.10;100.00;;;;;;6207363;23;19920;-69
2024/01/02 05:12:02;;;;;;;;;;;3.10;100.00;;;;;;6205854;23;19924;-69
2024/01/02 05:14:29;;;;;;;;;;;3.10;100.00;;;;;;6207730;23;20261;-69
2024/01/02 05:16:56;;;;;;;;;;;3.10;100.00;;;;;;6205932;23;20007;-69
2024/01/02 05:19:23;;;;;;;;;;;3.00;100.00;;;;;;6207045;22;19924;-69
2024/01/02 05:21:53;;;;;;;;;;;3.00;100.00;;;;;;6268636;22;20545;-70
2024/01/02 05:24:20;;;;;;;;;;;3.00;100.00;;;;;;6268580;22;19926;-70
2024/01/02 05:26:47;;;;;;;;;;;3.00;100.00;;;;;;6270269;22;19923;-70
2024/01/02 05:29:13;;;;;;;;;;;3.00;100.00;;;;;;6297649;22;19980;-70
2024/01/02 05:31:40;;;;;;;;;;;3.00;100.00;;;;;;6297342;22;19919;-70
2024/01/02 05:34:07;;;;;;;;;;;2.90;100.00;;;;;;6296914;22;20350;-70
2024/01/02 05:36:34;;;;;;;;;;;2.90;100.00;;;;;;6297632;22;19923;-70
2024/01/02 05:39:00;;;;;;;;;;;2.90;100.00;;;;;;6269867;22;19950;-70
2024/01/02 05:41:27;;;;;;;;;;;2.90;100.00;;;;;;6297452;22;19937;-70
2024/01/02 05:43:54;;;;;;;;;;;2.90;100.00;;;;;;6298059;22;19918;-69
2024/01/02 05:46:21;;;;;;;;;;;2.90;100.00;;;;;;6270319;22;20024;-69
2024/01/02 05:48:47;;;;;;;;;;;2.90;100.00;;;;;;6296828;22;19988;-69
2024/01/02 05:51:17;;;;;;;;;;;2.90;100.00;;;;;;6270898;22;19981;-69
2024/01/02 05:53:43;;;;;;;;;;;2.90;100.00;;;;;;6297667;22;19918;-69
2024/01/02 05:56:12;;;;;;;;;;;2.90;100.00;;;;;;6297661;22;20026;-69
2024/01/02 05:58:39;;;;;;;;;;;2.90;100.00;;;;;;6298446;22;19960;-69
2024/01/02 06:01:05;;;;;;;;;;;2.90;100.00;;;;;;6270957;22;19922;-69
2024/01/02 06:03:32;;;;;;;;;;;2.90;100.00;;;;;;6296918;22;19915;-69
2024/01/02 06:05:59;;;;;;;;;;;2.90;100.00;;;;;;6297826;22;19926;-69
2024/01/02 06:08:26;;;;;;;;;;;2.90;100.00;;;;;;6298231;22;20018;-69
2024/01/02 06:10:53;;;;;;;;;;;2.90;100.00;;;;;;6297154;22;19919;-69
2024/01/02 06:13:20;;;;;;;;;;;2.90;100.00;;;;;;6269572;22;20531;-69
2024/01/02 06:15:46;;;;;;;;;;;2.90;100.00;;;;;;6267992;22;19976;-69
2024/01/02 06:18:13;;;;;;;;;;;2.90;100.00;;;;;;6268767;22;19927;-76
2024/01/02 06:20:41;;;;;;;;;;;2.90;100.00;;;;;;6297395;22;19927;-71
2024/01/02 06:23:08;;;;;;;;;;;2.90;100.00;;;;;;6295952;22;19926;-67
2024/01/02 06:25:35;;;;;;;;;;;2.80;100.00;;;;;;6297738;22;19927;-68
2024/01/02 06:28:02;;;;;;;;;;;2.80;100.00;;;;;;6296492;22;19977;-68
2024/01/02 06:30:29;;;;;;;;;;;2.80;100.00;;;;;;6269108;22;19976;-68
2024/01/02 06:32:56;;;;;;;;;;;2.90;100.00;;;;;;6296256;22;19919;-68
2024/01/02 06:35:23;;;;;;;;;;;2.80;100.00;;;;;;6296645;22;20320;-67
2024/01/02 06:37:50;;;;;;;;;;;2.80;100.00;;;;;;6297025;22;19922;-67
2024/01/02 06:40:18;;;;;;;;;;;2.80;100.00;;;;;;6297891;22;19968;-67
2024/01/02 06:42:45;;;;;;;;;;;2.80;100.00;;;;;;6296472;22;20690;-68
2024/01/02 06:45:12;;;;;;;;;;;2.80;100.00;;;;;;6267945;22;19923;-68
2024/01/02 06:47:38;;;;;;;;;;;2.80;100.00;;;;;;6294898;22;19918;-69
2024/01/02 06:50:06;;;;;;;;;;;2.80;100.00;;;;;;6296403;22;19925;-68
2024/01/02 06:52:33;;;;;;;;;;;2.90;100.00;;;;;;6295019;22;19949;-69
2024/01/02 06:55:00;;;;;;;;;;;2.80;100.00;;;;;;6294907;22;19927;-69
2024/01/02 06:57:26;;;;;;;;;;;2.90;100.00;;;;;;6296966;22;20216;-69
2024/01/02 06:59:53;;;;;;;;;;;2.90;100.00;;;;;;6295400;22;19922;-69
2024/01/02 07:02:20;;;;;;;;;;;2.90;100.00;;;;;;6296176;22;19918;-69
2024/01/02 07:04:47;;;;;;;;;;;2.90;100.00;;;;;;6295023;22;19919;-69
2024/01/02 07:07:14;;;;;;;;;;;2.90;100.00;;;;;;6294599;22;19919;-69
2024/01/02 07:09:40;;;;;;;;;;;2.90;100.00;;;;;;6296587;22;20071;-69
2024/01/02 07:12:07;;;;;;;;;;;2.90;100.00;;;;;;6297805;22;19922;-69
2024/01/02 07:14:34;;;;;;;;;;;2.90;100.00;;;;;;6269802;22;19996;-69
2024/01/02 07:17:01;;;;;;;;;;;2.90;100.00;;;;;;6269520;22;20640;-68
2024/01/02 07:19:27;;;;;;;;;;;2.90;100.00;;;;;;6297753;22;19914;-68
2024/01/02 07:21:54;;;;;;;;;;;2.90;100.00;;;;;;6297148;22;20264;-68
2024/01/02 07:24:21;;;;;;;;;;;2.90;100.00;;;;;;6269678;22;20004;-68
2024/01/02 07:26:48;;;;;;;;;;;2.90;100.00;;;;;;6295754;22;19940;-69
2024/01/02 07:29:18;;;;;;;;;;;2.90;100.00;;;;;;6269870;22;19918;-69
2024/01/02 07:31:44;;;;;;;;;;;3.00;100.00;;;;;;6269092;22;19919;-69
2024/01/02 07:34:13;;;;;;;;;;;3.00;100.00;;;;;;6296487;22;19923;-69
2024/01/02 07:36:40;;;;;;;;;;;3.00;100.00;;;;;;6299065;22;20017;-69
2024/01/02 07:39:09;;;;;;;;;;;3.00;100.00;;;;;;6296707;22;19923;-69
2024/01/02 07:41:36;;;;;;;;;;;3.00;100.00;;;;;;6296132;22;20691;-68
2024/01/02 07:44:03;;;;;;;;;;;3.10;100.00;;;;;;6294692;22;19972;-68
2024/01/02 07:46:30;;;;;;;;;;;3.10;100.00;;;;;;6268247;22;19925;-69
2024/01/02 07:48:57;;;;;;;;;;;3.10;100.00;;;;;;6296445;22;19953;-69
2024/01/02 07:51:24;;;;;;;;;;;3.10;100.00;;;;;;6296580;22;20605;-69
2024/01/02 07:53:51;;;;;;;;;;;3.10;100.00;;;;;;6296051;22;19918;-69
2024/01/02 07:56:19;;;;;;;;;;;3.20;100.00;;;;;;6296559;22;19926;-68
2024/01/02 07:58:49;;;;;;;;;;;3.20;100.00;;;;;;6268749;22;19919;-68
2024/01/02 08:01:16;;;;;;;;;;;3.20;100.00;;;;;;6269001;22;19919;-68
2024/01/02 08:03:43;;;;;;;;;;;3.30;100.00;;;;;;6295872;22;19926;-69
2024/01/02 08:06:10;;;;;;;;;;;3.30;100.00;;;;;;6296364;22;19969;-68
2024/01/02 08:08:37;;;;;;;;;;;3.30;100.00;;;;;;6296614;22;19923;-68
2024/01/02 08:11:04;;;;;;;;;;;3.30;100.00;;;;;;6296865;22;19930;-68
2024/01/02 08:13:31;;;;;;;;;;;3.30;100.00;;;;;;6296097;22;19919;-68
2024/01/02 08:15:57;;;;;;;;;;;3.40;100.00;;;;;;6295259;22;19988;-68
2024/01/02 08:18:24;;;;;;;;;;;3.40;100.00;;;;;;6296485;22;19964;-68
2024/01/02 08:20:51;;;;;;;;;;;3.40;100.00;;;;;;6295363;22;19945;-69
2024/01/02 08:23:18;;;;;;;;;;;3.50;100.00;;;;;;6268588;22;19981;-68
2024/01/02 08:25:45;;;;;;;;;;;3.50;100.00;;;;;;6296390;22;19968;-69
2024/01/02 08:28:12;;;;;;;;;;;3.50;100.00;;;;;;6294529;22;19919;-68
2024/01/02 08:30:38;;;;;;;;;;;3.50;100.00;;;;;;6265272;22;19942;-68
2024/01/02 08:33:05;;;;;;;;;;;3.60;100.00;;;;;;6292628;22;19926;-68
2024/01/02 08:35:36;;;;;;;;;;;3.60;100.00;;;;;;6291368;22;19919;-68
2024/01/02 08:38:03;;;;;;;;;;;3.60;100.00;;;;;;6294459;22;19919;-68
2024/01/02 08:40:30;;;;;;;;;;;3.70;100.00;;;;;;6295991;22;19918;-68
2024/01/02 08:42:57;;;;;;;;;;;3.70;100.00;;;;;;6295640;22;19992;-68
2024/01/02 08:45:25;;;;;;;;;;;3.70;100.00;;;;;;6268085;22;19919;-69
2024/01/02 08:47:52;;;;;;;;;;;3.80;100.00;;;;;;6297886;22;19919;-68
2024/01/02 08:50:19;;;;;;;;;;;3.80;100.00;;;;;;6293892;22;19957;-68
2024/01/02 08:52:47;;;;;;;;;;;3.80;100.00;;;;;;6293524;22;19926;-68
2024/01/02 08:55:14;;;;;;;;;;;3.80;100.00;;;;;;6266606;22;19957;-68
2024/01/02 08:57:41;;;;;;;;;;;3.80;100.00;;;;;;6294396;22;19919;-68
2024/01/02 09:00:08;;;;;;;;;;;3.90;100.00;;;;;;6295849;22;19922;-68
2024/01/02 09:02:36;;;;;;;;;;;3.90;100.00;;;;;;6297757;22;19919;-69
2024/01/02 09:05:03;;;;;;;;;;;3.90;100.00;;;;;;6297744;22;19919;-68
2024/01/02 09:07:31;;;;;;;;;;;3.90;100.00;;;;;;6269276;22;20601;-68
2024/01/02 09:09:58;;;;;;;;;;;3.90;100.00;;;;;;6270490;22;19919;-68
2024/01/02 09:12:24;;;;;;;;;;;3.90;100.00;;;;;;6297185;22;20389;-68
2024/01/02 09:14:51;;;;;;;;;;;3.90;100.00;;;;;;6296628;22;19944;-68
2024/01/02 09:17:18;;;;;;;;;;;4.00;100.00;;;;;;6297475;22;19919;-68
2024/01/02 09:19:46;;;;;;;;;;;4.00;100.00;;;;;;6266766;22;19922;-68
2024/01/02 09:22:12;;;;;;;;;;;4.00;100.00;;;;;;6295020;22;19926;-69
2024/01/02 09:24:40;;;;;;;;;;;4.00;100.00;;;;;;6294619;22;19991;-69
2024/01/02 09:27:08;;;;;;;;;;;4.00;100.00;;;;;;6294747;22;19984;-69
2024/01/02 09:29:35;;;;;;;;;;;4.00;100.00;;;;;;6294503;22;19966;-69
2024/01/02 09:32:05;;;;;;;;;;;4.00;100.00;;;;;;6295244;22;20061;-69
2024/01/02 09:34:31;;;;;;;;;;;4.00;100.00;;;;;;6298101;22;19922;-69
2024/01/02 09:36:58;;;;;;;;;;;4.00;100.00;;;;;;6270321;22;19918;-69
2024/01/02 09:39:25;;;;;;;;;;;4.00;100.00;;;;;;6269260;22;19941;-69
2024/01/02 09:42:09;;;;;;;;;;;4.10;100.00;;;;;;6297113;22;19923;-69
2024/01/02 09:44:44;;;;;;;;;;;4.10;100.00;;;;;;6297647;22;19921;-69
2024/01/02 09:47:26;;;;;;;;;;;4.10;100.00;;;;;;6297731;22;19925;-68
2024/01/02 09:49:57;;;;;;;;;;;4.10;100.00;;;;;;6297316;22;19918;-68
2024/01/02 09:52:35;;;;;;;;;;;4.20;100.00;;;;;;6297231;22;19949;-68
2024/01/02 09:55:04;;;;;;;;;;;4.20;100.00;;;;;;6269807;22;20316;-68
2024/01/02 09:57:46;;;;;;;;;;;4.20;100.00;;;;;;6297091;22;19926;-68
2024/01/02 10:00:16;;;;;;;;;;;4.20;100.00;;;;;;6297188;22;19923;-68
2024/01/02 10:02:55;;;;;;;;;;;4.20;100.00;;;;;;6296615;22;19921;-69
2024/01/02 10:05:42;;;;;;;;;;;4.30;100.00;;;;;;6269524;22;19925;-69
2024/01/02 10:08:28;;;;;;;;;;;4.30;100.00;;;;;;6297774;22;20247;-68
2024/01/02 10:11:01;;;;;;;;;;;4.30;100.00;;;;;;6296794;22;19925;-69
2024/01/02 10:13:35;;;;;;;;;;;4.30;100.00;;;;;;6297735;22;19923;-69
2024/01/02 10:16:09;;;;;;;;;;;4.30;100.00;;;;;;6297540;22;20239;-70
2024/01/02 10:18:42;;;;;;;;;;;4.30;100.00;;;;;;6269781;22;19950;-69
2024/01/02 10:21:28;;;;;;;;;;;4.30;100.00;;;;;;6269086;22;19975;-70
2024/01/02 10:24:13;;;;;;;;;;;4.30;100.00;;;;;;6297076;22;19918;-71
2024/01/02 10:26:44;;;;;;;;;;;4.30;100.00;;;;;;6296005;22;19976;-70
2024/01/02 10:29:17;;;;;;;;;;;4.20;100.00;;;;;;6297489;22;20012;-70
2024/01/02 10:31:52;;;;;;;;;;;4.20;100.00;;;;;;6297985;22;19927;-70
2024/01/02 10:34:22;;;;;;;;;;;4.20;100.00;;;;;;6297338;22;20284;-71
2024/01/02 10:36:54;;;;;;;;;;;4.20;100.00;;;;;;6297369;22;19991;-71
2024/01/02 10:39:31;;;;;;;;;;;4.10;100.00;;;;;;6297760;22;19938;-69
2024/01/02 10:42:16;;;;;;;;;;;4.10;100.00;;;;;;6297521;22;19923;-71
2024/01/02 10:44:59;;;;;;;;;;;4.10;100.00;;;;;;6269114;22;19923;-71
2024/01/02 10:47:26;;;;;;;;;;;4.10;100.00;;;;;;6269534;22;19966;-71
2024/01/02 10:49:59;;;;;;;;;;;4.10;100.00;;;;;;6296560;22;19990;-71
2024/01/02 10:52:32;;;;;;;;;;;4.10;100.00;;;;;;6270085;22;19925;-71
2024/01/02 10:55:17;;;;;;;;;;;4.10;100.00;;;;;;6295384;22;19954;-71
2024/01/02 10:57:44;;;;;;;;;;;4.10;100.00;;;;;;6296617;22;19940;-71
2024/01/02 11:00:20;;;;;;;;;;;4.10;100.00;;;;;;6296874;22;19927;-71
2024/01/02 11:02:51;;;;;;;;;;;4.10;100.00;;;;;;6269428;22;19926;-71
2024/01/02 11:05:29;;;;;;;;;;;4.10;100.00;;;;;;6268246;22;19923;-71
2024/01/02 11:08:04;;;;;;;;;;;4.10;100.00;;;;;;6268520;22;19925;-71
2024/01/02 11:10:34;;;;;;;;;;;4.10;100.00;;;;;;6268948;22;19919;-71
2024/01/02 11:13:01;;;;;;;;;;;4.10;100.00;;;;;;6296358;22;20044;-71
2024/01/02 11:15:42;;;;;;;;;;;4.10;100.00;;;;;;6294941;22;20247;-71
2024/01/02 11:18:08;;;;;;;;;;;4.10;100.00;;;;;;6295605;22;19948;-71
2024/01/02 11:20:40;;;;;;;;;;;4.10;100.00;;;;;;6296889;22;19923;-71
2024/01/02 11:23:11;;;;;;;;;;;4.10;100.00;;;;;;6295292;22;20301;-71
2024/01/02 11:25:44;;;;;;;;;;;4.10;100.00;;;;;;6294279;22;20452;-70
2024/01/02 11:28:18;;;;;;;;;;;4.10;100.00;;;;;;6296044;22;19930;-71
2024/01/02 11:30:48;;;;;;;;;;;4.10;100.00;;;;;;6295541;22;19941;-71
2024/01/02 11:33:18;;;;;;;;;;;4.10;100.00;;;;;;6267963;22;20358;-70
2024/01/02 11:35:53;;;;;;;;;;;4.10;100.00;;;;;;6296435;22;19919;-71
2024/01/02 11:38:25;;;;;;;;;;;4.10;100.00;;;;;;6296736;22;20704;-71
2024/01/02 11:40:58;;;;;;;;;;;4.10;100.00;;;;;;6296321;22;19925;-71
2024/01/02 11:43:25;;;;;;;;;;;4.00;100.00;;;;;;6298012;22;19929;-71
2024/01/02 11:45:56;;;;;;;;;;;4.10;100.00;;;;;;6269392;22;20215;-71
2024/01/02 11:48:37;;;;;;;;;;;4.00;100.00;;;;;;6296216;22;19919;-71
2024/01/02 11:51:19;;;;;;;;;;;4.00;100.00;;;;;;6268635;22;19918;-70
2024/01/02 11:54:05;;;;;;;;;;;4.00;100.00;;;;;;6268336;22;19996;-70
2024/01/02 11:56:33;;;;;;;;;;;4.10;100.00;;;;;;6267651;22;19919;-70
2024/01/02 11:59:19;;;;;;;;;;;4.10;100.00;;;;;;6269601;22;19969;-71
2024/01/02 12:02:04;;;;;;;;;;;4.00;100.00;;;;;;6295174;22;19919;-70
2024/01/02 12:04:34;;;;;;;;;;;4.00;100.00;;;;;;6268850;22;20019;-70
2024/01/02 12:07:07;;;;;;;;;;;4.00;100.00;;;;;;6296111;22;20028;-71
2024/01/02 12:09:40;;;;;;;;;;;4.00;100.00;;;;;;6296788;22;20428;-70
2024/01/02 12:12:08;;;;;;;;;;;4.00;100.00;;;;;;6295838;22;19964;-70
2024/01/02 12:14:37;;;;;;;;;;;4.00;100.00;;;;;;6268897;22;19964;-70
2024/01/02 12:17:05;;;;;;;;;;;4.00;100.00;;;;;;6296972;22;19926;-70
2024/01/02 12:19:51;;;;;;;;;;;4.00;100.00;;;;;;6296000;22;19918;-70
2024/01/02 12:22:20;;;;;;;;;;;4.00;100.00;;;;;;6299107;22;19992;-70
2024/01/02 12:24:49;;;;;;;;;;;4.10;100.00;;;;;;6271466;22;19930;-70
2024/01/02 12:27:18;;;;;;;;;;;4.10;100.00;;;;;;6297757;22;19919;-70
2024/01/02 12:29:51;;;;;;;;;;;4.00;100.00;;;;;;6298519;22;19922;-70
2024/01/02 12:32:33;;;;;;;;;;;4.00;100.00;;;;;;6299032;22;19957;-70
2024/01/02 12:35:02;;;;;;;;;;;4.00;100.00;;;;;;6298355;22;19926;-70
2024/01/02 12:37:32;;;;;;;;;;;4.10;100.00;;;;;;6270902;22;19952;-70
2024/01/02 12:40:00;;;;;;;;;;;4.10;100.00;;;;;;6298652;22;20524;-70
2024/01/02 12:42:28;;;;;;;;;;;4.10;100.00;;;;;;6298394;22;19949;-70
2024/01/02 12:44:58;;;;;;;;;;;4.10;100.00;;;;;;6296749;22;19918;-70
2024/01/02 12:47:28;;;;;;;;;;;4.10;100.00;;;;;;6297262;22;20538;-70
2024/01/02 12:50:02;;;;;;;;;;;4.10;100.00;;;;;;6298251;22;19919;-70
2024/01/02 12:52:32;;;;;;;;;;;4.10;100.00;;;;;;6270048;22;19926;-70
2024/01/02 12:55:00;;;;;;;;;;;4.10;100.00;;;;;;6297933;22;20215;-69
2024/01/02 12:57:27;;;;;;;;;;;4.00;100.00;;;;;;6296704;22;20316;-68
2024/01/02 12:59:54;;;;;;;;;;;4.00;100.00;;;;;;6298454;22;19915;-68
2024/01/02 13:02:21;;;;;;;;;;;4.00;100.00;;;;;;6270570;22;20676;-68
2024/01/02 13:04:48;;;;;;;;;;;4.00;100.00;;;;;;6298652;22;20252;-68
2024/01/02 13:07:15;;;;;;;;;;;3.90;100.00;;;;;;6298111;22;19977;-68
2024/01/02 13:09:42;;;;;;;;;;;3.90;100.00;;;;;;6297750;22;19972;-68
2024/01/02 13:12:11;;;;;;;;;;;3.90;100.00;;;;;;6299057;22;20032;-68
2024/01/02 13:14:38;;;;;;;;;;;3.90;100.00;;;;;;6298269;22;19926;-68
2024/01/02 13:17:06;;;;;;;;;;;3.90;100.00;;;;;;6296928;22;20655;-68
2024/01/02 13:19:33;;;;;;;;;;;3.90;100.00;;;;;;6297905;22;19953;-68
2024/01/02 13:22:00;;;;;;;;;;;3.90;100.00;;;;;;6269690;22;20117;-69
2024/01/02 13:24:43;;;;;;;;;;;3.90;100.00;;;;;;6269298;22;19919;-69
2024/01/02 13:27:10;;;;;;;;;;;3.90;100.00;;;;;;6270866;22;19922;-69
2024/01/02 13:29:36;;;;;;;;;;;3.80;100.00;;;;;;6271293;22;19969;-69
2024/01/02 13:32:07;;;;;;;;;;;3.90;100.00;;;;;;6296326;22;20014;-69
2024/01/02 13:34:33;;;;;;;;;;;3.90;100.00;;;;;;6298170;22;19950;-69
2024/01/02 13:37:00;;;;;;;;;;;3.80;100.00;;;;;;6296255;22;20719;-69
2024/01/02 13:39:40;;;;;;;;;;;3.80;100.00;;;;;;6297489;22;20052;-70
2024/01/02 13:42:07;;;;;;;;;;;3.90;100.00;;;;;;6298471;22;19918;-69
2024/01/02 13:44:35;;;;;;;;;;;3.90;100.00;;;;;;6270900;22;19945;-70
2024/01/02 13:47:03;;;;;;;;;;;3.80;100.00;;;;;;6298155;22;19923;-70
2024/01/02 13:49:56;;;;;;;;;;;3.80;100.00;;;;;;6270221;22;20005;-69
2024/01/02 13:52:24;;;;;;;;;;;3.80;100.00;;;;;;6265560;22;19950;-68
2024/01/02 13:54:53;;;;;;;;;;;3.80;100.00;;;;;;6297209;22;20387;-71
2024/01/02 13:57:25;;;;;;;;;;;3.80;100.00;;;;;;6297220;22;19918;-71
2024/01/02 13:59:52;;;;;;;;;;;3.80;100.00;;;;;;6297728;22;20528;-71
2024/01/02 14:02:27;;;;;;;;;;;3.80;100.00;;;;;;6270117;22;19927;-71
2024/01/02 14:04:58;;;;;;;;;;;3.80;100.00;;;;;;6297605;22;19922;-71
2024/01/02 14:07:26;;;;;;;;;;;3.90;100.00;;;;;;6298714;22;19938;-71
2024/01/02 14:09:54;;;;;;;;;;;3.80;100.00;;;;;;6297750;22;20323;-70
2024/01/02 14:12:21;;;;;;;;;;;3.80;100.00;;;;;;6297439;22;20366;-71
2024/01/02 14:14:53;;;;;;;;;;;3.90;100.00;;;;;;6297536;22;19972;-70
2024/01/02 14:17:26;;;;;;;;;;;3.80;100.00;;;;;;6297209;22;19953;-70
2024/01/02 14:19:55;;;;;;;;;;;3.80;100.00;;;;;;6296380;22;19925;-70
2024/01/02 14:22:52;;;;;;;;;;;3.80;100.00;;;;;;6298538;22;19918;-70
2024/01/02 14:25:38;;;;;;;;;;;3.80;100.00;;;;;;6265777;22;19976;-69